Timeline UpdatesTrip UpdatesNews PostsPvt PostsTravel TipsAdmin PostsConv PostsFollowed PostsChat RequestsBlog PostsPNR Posts

Disclaimer
Search
 
 
Sun Apr 20, 2014 09:13:06 ISTHomeTrainsΣChainsAtlasPNRForumGalleryNewsFAQTripsMembersLoginFeedback
No Recent News for this Train
Other Trains in the News **new
Latest...
⇐ Return Journey: Train# 59814

59813/Kota Agra Yamuna Bridge Passenger (UnReserved)

Jul 04 2013 (4:21PM)
Change Departure Station:
Change Arrival Station:
Post a Train Travel TipPost a Train Travel Tip **new
Post a Comment/Question/Picture/VideoPost a Comment/Question/Picture/Video
Pantry/Catering
✕ NO Pantry Car
✕ NO Catering
RSA - Rake Sharing
Rake/Coach Composition
Loco
WAM - 4
News    PNR    Forum    Time-Table    Availability    Fare Chart    Map    Arr/Dep History    Trips    Gallery    ΣChains    X/O    Timeline    
Travel Time: 5h 54m    27 halts    Distance: 240 km    Avg Speed: 40 km/hr
Type: Passenger
Zone: WR/Western
Departs @ 07:15 (Avg on time)
Platform# 1
SMTWTFS
Kota Junction/KOTA 
Arrives @ 13:09 (Avg 29m late)
Platform# ???
SMTWTFS
Dumariya/DY 

27 halts. 31 intermediate Stations between Kota Junction and Dumariya

Show ALL intermediate Stations  Show Old Time-Table

#CodeStation NameX/OArrivesAvgDepartsAvgHaltPFDay#KmSpeedElevZoneAddress
1KOTA»Kota Junction (5)»-07:15+0110.036256mWCRKota, Rajasthan
2GQLGurla  07:24+707:25+71m--15.453251mWCRSH 33, Rajasthan
3KPTNKeshorai Patan  07:34+507:35+71m--113.473243mWCRSH 33, Rajasthan
4AREArnethaO  07:44+707:45+71m--124.361239mWCRShreepura, Rajasthan
5KPZKapren  07:54+707:55+71m--133.567234mWCRKota - Lalsot Mega Highway, Rajasthan
6GKBGhataka Varana  08:04+708:05+71m--143.562232mWCRSH 33, Rajasthan
7LBNLaban (2)  08:14+708:15+161m--152.950225mWCRBundi, Rajasthan
8LKELakheri (3)X  08:24+1208:25+161m--160.535228mWCRBundi, Rajasthan
9IDGIndargarh Sumerganj Mandi (2)  08:44+1408:45+211m--171.487247mWCRIndargarh, Rajasthan
10AMLIAmli  08:54+2408:55+241m--184.551233mWCRSawai Madhopur, Rajasthan
11RWJRawania DungarXO  09:04+2409:05+251m--192.156266mWCRSawai Madhopur, Rajasthan
12KTAKushtala  09:14+2509:15+281m--1100.612283mWCRNH 116, Rajasthan
13SWMSawai Madhopur Junction (4)  09:50+609:55+75m--1107.768266mWCRSawai Madhopur, Rajasthan
14RNTRanthambhore  10:04+1510:05+151m--1117.961248mWCRMDR 111, Rajasthan
15MXLMokholi  10:14+1310:15+131m--1127.172242mWCRMDR 111, Rajasthan
16MLZMalarnaX  10:24+1410:25+171m--1137.948236mWCRSawai Madhopur, Rajasthan
17NMDNomodaX  10:34+1610:35+161m--1145.041238mWCRMDR 111, Rajasthan
18NNWNarayanpur Tatwara (2)  10:49+1410:50+151m--1154.771256mWCRSawai Madhopur, Rajasthan
19LRULalpur UmriX  10:59+1711:00+181m--1165.315276mWCRSH 1, Rajasthan
20GGCGangapur City (3)  11:25+311:35+310m--1171.664270mWCRGangapur, Rajasthan
21COOChhoti OdaiX  11:47+711:48+111m--1184.353257mWCRSH 25, Rajasthan
22PDZPiliodaX  11:57+1211:58+151m--1192.261247mWCRSH 1, Rajasthan
23KNDPKhandipX  12:04-12:05-1m--1198.344245mWCRState Highway 1, Rajasthan
24SMBJShri Mahabirji (3)  12:15+1712:16+241m--1205.755240mWCRKarauli, Rajasthan
25SKDMSikroda MinaX  12:22-12:23-1m--1211.222233mWCRSH 22, Rajasthan
26HANHindaun City (2)X  12:36+1712:37+281m21215.963230mWCRKarauli, Rajasthan
27DNHKDhindora Hukmikhera  12:45-12:46-1m--1224.258223mWCRDhindhora, Rajasthan
28FSPFateh Singhpura  12:51+3712:52+371m--1229.138223mWCRState Highway 1, Rajasthan
29DY•Dumariya (2)•XO  13:09+2913:10+491m--1239.78211mWCRState Highway 1, Rajasthan
30BXNBayana Junction (3)XO  14:20+214:50+030m--1248.845198mWCRBayana, Rajasthan
31BAMABirambad (1)  14:56+1314:57+131m11253.240196mNCRDumariya, Rajasthan
32BRBandh Bareta (1)  15:04+1215:05+141m11257.969203mNCRDumariya, Rajasthan
33NGLTNaglatula (1)  15:10+1815:11+181m11263.654209mNCRBayana, Rajasthan
34BIQBansi Paharpur (1)  15:18+1815:19+201m11269.950216mNCRRupbas, Rajasthan
35DXKDhana Kherli (1)X  15:26+1915:27+191m11275.754192mNCRFatehpur Sikri, Uttar Pradesh
36RBSRupbas (2)  15:35+1915:36+351m--1282.946178mNCRJAGNER ROAD, Rajasthan
37AEDAulenda (1)  15:43+3615:44+361m11288.253179mNCRKiraoli, Uttar Pradesh
38FTSFatehpur Sikri (2)  15:54+3115:55+351m--1297.138176mNCRAgra, Uttar Pradesh
39SNPRSingarpur (1)  16:03+4016:04+401m11302.255168mNCRRupbas, Rajasthan
40KLBKiraoli (1)  16:12+3916:13+541m11309.554174mNCRKiraoli, Uttar Pradesh
41MIQMirhakur (1)  16:22+5616:23+551m11317.645172mNCRIdgah Agra, Uttar Pradesh
42PTLIPathauli (1)  16:31+5616:32+1:001m11323.638174mNCRAgra Fort, Uttar Pradesh
43IDHIdgah Agra Junction (3)  16:44+4616:45+511m--1331.19168mNCRAgra, Uttar Pradesh
44AFAgra Fort (3)  17:00+3417:10+3710m21333.310170mNCRRakabganj, Uttar Pradesh
45JABYamuna Bridge Agra (3)  17:25+1:14---1335.7-168mNCRAgra, Uttar Pradesh
Scroll to Top
Scroll to Bottom